^^
Station Historical Data
Daily Summary for April 2, 2017 Units:  English    Metric   Both
« Previous Day
Next Day »
Daily Weekly Monthly Yearly Custom
  High: Low: Average:
Temperature: 60.6 °F 36.3 °F 48.9 °F
Dew Point: 35.2 °F 30.4 °F 32.9 °F
Humidity: 85% 33% 57%
Wind Speed: 6.0mph 0.0mph 1.3mph
Wind Gust: 14.0mph - -
Wind- - WSW
Pressure: 30.16 in 30.05 in -
Precipitation: 0.00 in    
Historical Graphs
 
 
Tabular Data for April 2, 2017
Time Temperature Dew Point Pressure Wind Wind Speed Wind Gust Humidity Rainfall Rate (Hourly) Conditions
00:00 40.6 °F 35.2 °F 30.07 in Calm   1.0 mph 81% 0.00 in RA
00:15 40.5 °F 35.1 °F 30.07 in NE 1.0 mph 3.0 mph 81% 0.00 in BKN
00:30 40.5 °F 35.1 °F 30.07 in Calm   6.0 mph 81% 0.00 in BKN
00:45 40.4 °F 35.0 °F 30.07 in NNW 1.0 mph 3.0 mph 81% 0.00 in BKN
01:00 40.1 °F 35.0 °F 30.07 in Calm   3.0 mph 82% 0.00 in BKN
02:15 40.0 °F 34.9 °F 30.06 in Calm   1.0 mph 82% 0.00 in BKN
02:30 39.8 °F 35.1 °F 30.06 in Calm   1.0 mph 83% 0.00 in BKN
02:45 39.7 °F 35.0 °F 30.06 in Calm   1.0 mph 83% 0.00 in BKN
03:00 39.5 °F 34.8 °F 30.06 in North 1.0 mph 4.0 mph 83% 0.00 in BKN
03:15 39.4 °F 34.7 °F 30.06 in NNW 2.0 mph 5.0 mph 83% 0.00 in BKN
03:30 39.3 °F 34.0 °F 30.06 in Calm   7.0 mph 81% 0.00 in BKN
03:45 39.4 °F 34.1 °F 30.07 in Calm   1.0 mph 81% 0.00 in BKN
04:00 39.6 °F 34.2 °F 30.07 in Calm   2.0 mph 81% 0.00 in BKN
04:15 39.7 °F 33.7 °F 30.08 in North 1.0 mph 5.0 mph 79% 0.00 in BKN
04:30 39.8 °F 33.5 °F 30.08 in Calm   6.0 mph 78% 0.00 in BKN
05:00 39.3 °F 33.3 °F 30.09 in Calm   3.0 mph 79% 0.00 in BKN
05:15 38.6 °F 33.0 °F 30.10 in Calm   2.0 mph 80% 0.00 in BKN
05:30 38.0 °F 32.6 °F 30.10 in Calm   3.0 mph 81% 0.00 in BKN
05:45 37.5 °F 32.5 °F 30.11 in West 1.0 mph 6.0 mph 82% 0.00 in BKN
06:00 37.1 °F 32.4 °F 30.12 in Calm   1.0 mph 83% 0.00 in BKN
06:15 36.9 °F 32.5 °F 30.13 in Calm   1.0 mph 84% 0.00 in FEW
06:30 36.5 °F 32.1 °F 30.14 in Calm   1.0 mph 84% 0.00 in FEW
07:00 36.3 °F 32.2 °F 30.15 in Calm   1.0 mph 85% 0.00 in FEW
07:15 36.9 °F 32.2 °F 30.15 in NNW 1.0 mph 3.0 mph 83% 0.00 in FEW
07:30 37.4 °F 32.4 °F 30.15 in Calm   5.0 mph 82% 0.00 in FEW
07:45 37.8 °F 32.8 °F 30.15 in NNW 2.0 mph 6.0 mph 82% 0.00 in FEW
08:00 38.6 °F 32.9 °F 30.15 in NNW 1.0 mph 7.0 mph 80% 0.00 in FEW
08:15 39.3 °F 33.0 °F 30.16 in North 3.0 mph 7.0 mph 78% 0.00 in CLR
08:30 40.2 °F 33.5 °F 30.16 in NNW 5.0 mph 9.0 mph 77% 0.00 in CLR
08:45 41.4 °F 34.1 °F 30.15 in NNW 1.0 mph 8.0 mph 75% 0.00 in CLR
09:00 42.5 °F 33.8 °F 30.15 in NNW 2.0 mph 6.0 mph 71% 0.00 in CLR
09:15 43.5 °F 34.0 °F 30.15 in West 1.0 mph 6.0 mph 69% 0.00 in CLR
09:30 44.4 °F 34.5 °F 30.15 in NW 1.0 mph 5.0 mph 68% 0.00 in CLR
09:45 44.8 °F 34.5 °F 30.16 in NW 1.0 mph 9.0 mph 67% 0.00 in CLR
10:00 45.3 °F 34.3 °F 30.16 in NNW 3.0 mph 7.0 mph 65% 0.00 in CLR
10:15 45.9 °F 34.4 °F 30.16 in NW 3.0 mph 8.0 mph 64% 0.00 in CLR
10:30 45.9 °F 34.8 °F 30.16 in NNW 1.0 mph 6.0 mph 65% 0.00 in CLR
10:45 46.7 °F 34.4 °F 30.16 in North 1.0 mph 6.0 mph 62% 0.00 in CLR
11:00 47.9 °F 34.7 °F 30.16 in NW 1.0 mph 6.0 mph 60% 0.00 in CLR
11:15 48.8 °F 33.8 °F 30.15 in NNW 3.0 mph 6.0 mph 56% 0.00 in CLR
11:30 49.6 °F 34.1 °F 30.14 in NNW 2.0 mph 5.0 mph 55% 0.00 in CLR
11:45 50.7 °F 35.1 °F 30.14 in NW 1.0 mph 5.0 mph 55% 0.00 in CLR
12:00 52.7 °F 34.5 °F 30.14 in SW 1.0 mph 7.0 mph 50% 0.00 in CLR
12:15 52.9 °F 33.8 °F 30.13 in SW 1.0 mph 10.0 mph 48% 0.00 in CLR
12:30 52.9 °F 33.7 °F 30.12 in WSW 1.0 mph 8.0 mph 48% 0.00 in CLR
12:45 53.9 °F 33.0 °F 30.11 in WNW 2.0 mph 6.0 mph 45% 0.00 in CLR
13:00 54.6 °F 33.1 °F 30.11 in West 2.0 mph 7.0 mph 44% 0.00 in CLR
13:15 55.0 °F 32.9 °F 30.10 in WNW 1.0 mph 6.0 mph 43% 0.00 in FEW
13:30 55.5 °F 32.2 °F 30.10 in NNW 2.0 mph 7.0 mph 41% 0.00 in FEW
13:45 57.3 °F 32.5 °F 30.09 in WSW 2.0 mph 12.0 mph 39% 0.00 in FEW
14:00 56.7 °F 30.7 °F 30.09 in WNW 6.0 mph 10.0 mph 37% 0.00 in FEW
14:15 56.8 °F 30.8 °F 30.08 in Calm   5.0 mph 37% 0.00 in SCT
14:30 57.2 °F 31.1 °F 30.07 in NW 2.0 mph 6.0 mph 37% 0.00 in SCT
14:45 57.9 °F 31.1 °F 30.07 in NNW 1.0 mph 12.0 mph 36% 0.00 in SCT
15:00 58.1 °F 31.2 °F 30.07 in ENE 1.0 mph 13.0 mph 36% 0.00 in SCT
15:15 58.0 °F 30.5 °F 30.06 in NNW 6.0 mph 13.0 mph 35% 0.00 in SCT
15:30 58.4 °F 31.5 °F 30.05 in NW 2.0 mph 9.0 mph 36% 0.00 in SCT
15:45 58.9 °F 30.6 °F 30.05 in West 3.0 mph 13.0 mph 34% 0.00 in SCT
16:00 59.6 °F 30.4 °F 30.05 in WSW 2.0 mph 14.0 mph 33% 0.00 in SCT
16:15 60.0 °F 31.5 °F 30.05 in NNW 5.0 mph 11.0 mph 34% 0.00 in SCT
16:30 59.8 °F 31.3 °F 30.05 in NNW 5.0 mph 13.0 mph 34% 0.00 in SCT
16:45 60.6 °F 32.1 °F 30.05 in NW 2.0 mph 12.0 mph 34% 0.00 in SCT
17:00 59.5 °F 31.8 °F 30.06 in NNW 5.0 mph 12.0 mph 35% 0.00 in SCT
17:15 60.3 °F 32.5 °F 30.06 in NNW 3.0 mph 10.0 mph 35% 0.00 in SCT
17:30 59.8 °F 31.4 °F 30.06 in NNW 2.0 mph 10.0 mph 34% 0.00 in SCT
17:45 59.6 °F 31.9 °F 30.06 in ENE 1.0 mph 12.0 mph 35% 0.00 in SCT
18:00 59.5 °F 31.1 °F 30.06 in NNE 1.0 mph 12.0 mph 34% 0.00 in SCT
18:15 58.5 °F 30.9 °F 30.06 in NE 3.0 mph 12.0 mph 35% 0.00 in SCT
18:30 57.7 °F 31.6 °F 30.06 in North 2.0 mph 9.0 mph 37% 0.00 in SCT
18:45 57.9 °F 31.1 °F 30.06 in North 2.0 mph 6.0 mph 36% 0.00 in SCT
19:00 57.5 °F 31.4 °F 30.05 in Calm   4.0 mph 37% 0.00 in SCT
19:15 56.4 °F 31.7 °F 30.05 in Calm   4.0 mph 39% 0.00 in FEW
19:30 55.5 °F 32.1 °F 30.05 in Calm   1.0 mph 41% 0.00 in FEW
19:45 54.5 °F 32.4 °F 30.06 in Calm   1.0 mph 43% 0.00 in FEW
20:00 53.1 °F 32.3 °F 30.06 in Calm     45% 0.00 in FEW
20:15 52.9 °F 32.1 °F 30.07 in Calm   1.0 mph 45% 0.00 in FEW
20:30 53.3 °F 32.4 °F 30.07 in Calm   1.0 mph 45% 0.00 in FEW
20:45 52.6 °F 32.9 °F 30.08 in Calm     47% 0.00 in FEW
21:00 52.2 °F 32.6 °F 30.08 in Calm   1.0 mph 47% 0.00 in FEW
21:15 52.9 °F 32.7 °F 30.09 in NE 1.0 mph 4.0 mph 46% 0.00 in CLR
21:30 53.4 °F 32.6 °F 30.10 in Calm   8.0 mph 45% 0.00 in CLR
21:45 53.5 °F 32.1 °F 30.10 in NNE 2.0 mph 5.0 mph 44% 0.00 in CLR
22:00 53.5 °F 32.1 °F 30.10 in Calm   8.0 mph 44% 0.00 in CLR
22:15 52.9 °F 32.1 °F 30.10 in NE 1.0 mph 5.0 mph 45% 0.00 in CLR
22:30 53.3 °F 31.9 °F 30.10 in NNE 2.0 mph 7.0 mph 44% 0.00 in CLR
22:45 53.3 °F 31.9 °F 30.10 in NNE 3.0 mph 8.0 mph 44% 0.00 in CLR
23:00 52.5 °F 32.3 °F 30.10 in NNE 1.0 mph 4.0 mph 46% 0.00 in CLR
23:15 51.9 °F 32.3 °F 30.10 in Calm   5.0 mph 47% 0.00 in CLR
23:30 51.4 °F 31.8 °F 30.11 in Calm   2.0 mph 47% 0.00 in CLR
23:45 50.9 °F 31.9 °F 30.11 in Calm   2.0 mph 48% 0.00 in CLR
TarryTown NY Weather
Compliments of Weather Underground - 1.5 mb